sensor_id;sensor_type;location;lat;lon;timestamp;P1;P2;P0
51258;PMS7003;37327;54.254;18.504;2023-03-21T00:01:42;1;1;1
51258;PMS7003;37327;54.254;18.504;2023-03-21T00:04:59;3;2;2
51258;PMS7003;37327;54.254;18.504;2023-03-21T00:08:17;1;1;1
51258;PMS7003;37327;54.254;18.504;2023-03-21T00:11:38;3;1;1
51258;PMS7003;37327;54.254;18.504;2023-03-21T00:14:55;1;1;0
51258;PMS7003;37327;54.254;18.504;2023-03-21T00:18:21;1;1;1
51258;PMS7003;37327;54.254;18.504;2023-03-21T00:21:40;1;1;1
51258;PMS7003;37327;54.254;18.504;2023-03-21T00:24:58;2;1;1
51258;PMS7003;37327;54.254;18.504;2023-03-21T00:28:16;1;1;1
51258;PMS7003;37327;54.254;18.504;2023-03-21T00:31:33;1;1;1
51258;PMS7003;37327;54.254;18.504;2023-03-21T00:34:52;2;1;1
51258;PMS7003;37327;54.254;18.504;2023-03-21T00:38:09;0;0;0
51258;PMS7003;37327;54.254;18.504;2023-03-21T00:41:27;3;1;1
51258;PMS7003;37327;54.254;18.504;2023-03-21T00:44:44;1;1;1
51258;PMS7003;37327;54.254;18.504;2023-03-21T00:48:01;1;1;0
51258;PMS7003;37327;54.254;18.504;2023-03-21T00:51:20;5;2;2
51258;PMS7003;37327;54.254;18.504;2023-03-21T00:54:42;1;1;1
51258;PMS7003;37327;54.254;18.504;2023-03-21T00:57:59;2;2;1
51258;PMS7003;37327;54.254;18.504;2023-03-21T01:01:16;3;2;1
51258;PMS7003;37327;54.254;18.504;2023-03-21T01:04:34;2;1;1
51258;PMS7003;37327;54.254;18.504;2023-03-21T01:07:52;1;1;1
51258;PMS7003;37327;54.254;18.504;2023-03-21T01:11:10;2;2;2
51258;PMS7003;37327;54.254;18.504;2023-03-21T01:14:31;1;1;1
51258;PMS7003;37327;54.254;18.504;2023-03-21T01:17:48;3;1;1
51258;PMS7003;37327;54.254;18.504;2023-03-21T01:21:10;2;1;1
51258;PMS7003;37327;54.254;18.504;2023-03-21T01:24:29;0;0;0
51258;PMS7003;37327;54.254;18.504;2023-03-21T01:27:46;1;1;1
51258;PMS7003;37327;54.254;18.504;2023-03-21T01:31:04;1;1;1
51258;PMS7003;37327;54.254;18.504;2023-03-21T01:34:22;0;0;0
51258;PMS7003;37327;54.254;18.504;2023-03-21T01:37:39;1;1;1
51258;PMS7003;37327;54.254;18.504;2023-03-21T01:40:58;0;0;0
51258;PMS7003;37327;54.254;18.504;2023-03-21T01:44:19;0;0;0
51258;PMS7003;37327;54.254;18.504;2023-03-21T01:47:37;1;1;1
51258;PMS7003;37327;54.254;18.504;2023-03-21T01:50:54;1;1;1
51258;PMS7003;37327;54.254;18.504;2023-03-21T01:54:14;1;1;0
51258;PMS7003;37327;54.254;18.504;2023-03-21T01:57:44;1;1;0
51258;PMS7003;37327;54.254;18.504;2023-03-21T02:01:04;0;0;0
51258;PMS7003;37327;54.254;18.504;2023-03-21T02:04:22;0;0;0
51258;PMS7003;37327;54.254;18.504;2023-03-21T02:07:45;0;0;0
51258;PMS7003;37327;54.254;18.504;2023-03-21T02:11:04;0;0;0
51258;PMS7003;37327;54.254;18.504;2023-03-21T02:14:24;0;0;0
51258;PMS7003;37327;54.254;18.504;2023-03-21T02:28:23;1;1;1
51258;PMS7003;37327;54.254;18.504;2023-03-21T02:38:44;0;0;0
51258;PMS7003;37327;54.254;18.504;2023-03-21T02:42:15;1;1;1
51258;PMS7003;37327;54.254;18.504;2023-03-21T02:45:41;1;1;1
51258;PMS7003;37327;54.254;18.504;2023-03-21T02:49:07;0;0;0
51258;PMS7003;37327;54.254;18.504;2023-03-21T02:52:32;0;0;0
51258;PMS7003;37327;54.254;18.504;2023-03-21T02:55:52;0;0;0
51258;PMS7003;37327;54.254;18.504;2023-03-21T02:59:12;0;0;0
51258;PMS7003;37327;54.254;18.504;2023-03-21T03:02:31;0;0;0
51258;PMS7003;37327;54.254;18.504;2023-03-21T03:05:49;1;1;1
51258;PMS7003;37327;54.254;18.504;2023-03-21T03:09:18;0;0;0
51258;PMS7003;37327;54.254;18.504;2023-03-21T03:19:51;2;1;1
51258;PMS7003;37327;54.254;18.504;2023-03-21T03:23:24;2;2;1
51258;PMS7003;37327;54.254;18.504;2023-03-21T03:30:13;1;1;1
51258;PMS7003;37327;54.254;18.504;2023-03-21T03:33:32;1;1;1
51258;PMS7003;37327;54.254;18.504;2023-03-21T03:36:55;2;1;1
51258;PMS7003;37327;54.254;18.504;2023-03-21T03:40:17;2;2;1
51258;PMS7003;37327;54.254;18.504;2023-03-21T03:47:15;2;2;2
51258;PMS7003;37327;54.254;18.504;2023-03-21T03:50:43;2;2;1
51258;PMS7003;37327;54.254;18.504;2023-03-21T03:54:10;1;1;1
51258;PMS7003;37327;54.254;18.504;2023-03-21T03:57:33;2;2;2
51258;PMS7003;37327;54.254;18.504;2023-03-21T04:00:51;2;2;1
51258;PMS7003;37327;54.254;18.504;2023-03-21T04:04:11;1;1;1
51258;PMS7003;37327;54.254;18.504;2023-03-21T04:07:32;2;2;2
51258;PMS7003;37327;54.254;18.504;2023-03-21T04:10:49;2;1;1
51258;PMS7003;37327;54.254;18.504;2023-03-21T04:14:07;2;2;1
51258;PMS7003;37327;54.254;18.504;2023-03-21T04:17:24;1;1;1
51258;PMS7003;37327;54.254;18.504;2023-03-21T04:20:42;1;1;1
51258;PMS7003;37327;54.254;18.504;2023-03-21T04:24:00;3;3;1
51258;PMS7003;37327;54.254;18.504;2023-03-21T04:27:17;3;2;2
51258;PMS7003;37327;54.254;18.504;2023-03-21T04:30:35;2;2;2
51258;PMS7003;37327;54.254;18.504;2023-03-21T04:33:53;1;0;0
51258;PMS7003;37327;54.254;18.504;2023-03-21T04:37:12;1;1;1
51258;PMS7003;37327;54.254;18.504;2023-03-21T04:40:30;1;1;1
51258;PMS7003;37327;54.254;18.504;2023-03-21T04:43:48;2;1;1
51258;PMS7003;37327;54.254;18.504;2023-03-21T04:47:07;2;2;1
51258;PMS7003;37327;54.254;18.504;2023-03-21T04:50:24;3;2;2
51258;PMS7003;37327;54.254;18.504;2023-03-21T04:53:41;1;1;1
51258;PMS7003;37327;54.254;18.504;2023-03-21T04:57:04;1;1;1
51258;PMS7003;37327;54.254;18.504;2023-03-21T05:00:22;3;1;1
51258;PMS7003;37327;54.254;18.504;2023-03-21T05:03:42;1;1;1
51258;PMS7003;37327;54.254;18.504;2023-03-21T05:07:00;1;1;1
51258;PMS7003;37327;54.254;18.504;2023-03-21T05:10:17;2;2;1
51258;PMS7003;37327;54.254;18.504;2023-03-21T05:13:34;1;1;1
51258;PMS7003;37327;54.254;18.504;2023-03-21T05:16:52;1;1;1
51258;PMS7003;37327;54.254;18.504;2023-03-21T05:20:12;2;2;1
51258;PMS7003;37327;54.254;18.504;2023-03-21T05:23:32;3;2;2
51258;PMS7003;37327;54.254;18.504;2023-03-21T05:26:53;1;1;1
51258;PMS7003;37327;54.254;18.504;2023-03-21T05:30:16;3;2;1
51258;PMS7003;37327;54.254;18.504;2023-03-21T05:33:34;2;1;1
51258;PMS7003;37327;54.254;18.504;2023-03-21T05:36:52;1;1;1
51258;PMS7003;37327;54.254;18.504;2023-03-21T05:40:10;2;1;1
51258;PMS7003;37327;54.254;18.504;2023-03-21T05:43:27;1;1;0
51258;PMS7003;37327;54.254;18.504;2023-03-21T05:46:45;0;0;0
51258;PMS7003;37327;54.254;18.504;2023-03-21T05:50:02;0;0;0
51258;PMS7003;37327;54.254;18.504;2023-03-21T05:53:20;0;0;0
51258;PMS7003;37327;54.254;18.504;2023-03-21T05:56:37;0;0;0
51258;PMS7003;37327;54.254;18.504;2023-03-21T05:59:54;1;0;0
51258;PMS7003;37327;54.254;18.504;2023-03-21T06:03:12;5;1;1
51258;PMS7003;37327;54.254;18.504;2023-03-21T06:06:29;0;0;0
51258;PMS7003;37327;54.254;18.504;2023-03-21T06:09:47;0;0;0
51258;PMS7003;37327;54.254;18.504;2023-03-21T06:13:04;0;0;0
51258;PMS7003;37327;54.254;18.504;2023-03-21T06:16:22;0;0;0
51258;PMS7003;37327;54.254;18.504;2023-03-21T06:19:39;0;0;0
51258;PMS7003;37327;54.254;18.504;2023-03-21T06:22:56;0;0;0
51258;PMS7003;37327;54.254;18.504;2023-03-21T06:26:13;0;0;0
51258;PMS7003;37327;54.254;18.504;2023-03-21T06:29:31;1;0;0
51258;PMS7003;37327;54.254;18.504;2023-03-21T06:32:48;1;0;0
51258;PMS7003;37327;54.254;18.504;2023-03-21T06:36:06;1;1;0
51258;PMS7003;37327;54.254;18.504;2023-03-21T06:39:24;1;1;1
51258;PMS7003;37327;54.254;18.504;2023-03-21T06:42:41;0;0;0
51258;PMS7003;37327;54.254;18.504;2023-03-21T06:45:59;2;1;1
51258;PMS7003;37327;54.254;18.504;2023-03-21T06:49:17;1;1;1
51258;PMS7003;37327;54.254;18.504;2023-03-21T06:52:35;2;1;1
51258;PMS7003;37327;54.254;18.504;2023-03-21T06:55:53;2;1;1
51258;PMS7003;37327;54.254;18.504;2023-03-21T06:59:10;3;2;2
51258;PMS7003;37327;54.254;18.504;2023-03-21T07:02:28;1;1;1
51258;PMS7003;37327;54.254;18.504;2023-03-21T07:05:46;1;1;1
51258;PMS7003;37327;54.254;18.504;2023-03-21T07:09:05;2;1;1
51258;PMS7003;37327;54.254;18.504;2023-03-21T07:12:23;3;1;1
51258;PMS7003;37327;54.254;18.504;2023-03-21T07:15:40;2;2;1
51258;PMS7003;37327;54.254;18.504;2023-03-21T07:18:58;4;2;1
51258;PMS7003;37327;54.254;18.504;2023-03-21T07:22:15;3;2;2
51258;PMS7003;37327;54.254;18.504;2023-03-21T07:25:32;1;1;1
51258;PMS7003;37327;54.254;18.504;2023-03-21T07:28:51;2;1;1
51258;PMS7003;37327;54.254;18.504;2023-03-21T07:32:08;2;2;1
51258;PMS7003;37327;54.254;18.504;2023-03-21T07:35:26;3;2;2
51258;PMS7003;37327;54.254;18.504;2023-03-21T07:38:44;0;0;0
51258;PMS7003;37327;54.254;18.504;2023-03-21T07:42:01;0;0;0
51258;PMS7003;37327;54.254;18.504;2023-03-21T07:45:19;1;0;0
51258;PMS7003;37327;54.254;18.504;2023-03-21T07:48:40;1;1;1
51258;PMS7003;37327;54.254;18.504;2023-03-21T07:51:57;0;0;0
51258;PMS7003;37327;54.254;18.504;2023-03-21T07:55:17;2;0;0
51258;PMS7003;37327;54.254;18.504;2023-03-21T07:58:34;0;0;0
51258;PMS7003;37327;54.254;18.504;2023-03-21T08:01:51;0;0;0
51258;PMS7003;37327;54.254;18.504;2023-03-21T08:05:08;0;0;0
51258;PMS7003;37327;54.254;18.504;2023-03-21T08:08:26;0;0;0
51258;PMS7003;37327;54.254;18.504;2023-03-21T08:11:44;1;0;0
51258;PMS7003;37327;54.254;18.504;2023-03-21T08:15:02;0;0;0
51258;PMS7003;37327;54.254;18.504;2023-03-21T08:18:19;0;0;0
51258;PMS7003;37327;54.254;18.504;2023-03-21T08:21:37;0;0;0
51258;PMS7003;37327;54.254;18.504;2023-03-21T08:24:54;0;0;0
51258;PMS7003;37327;54.254;18.504;2023-03-21T08:28:11;0;0;0
51258;PMS7003;37327;54.254;18.504;2023-03-21T08:31:29;0;0;0
51258;PMS7003;37327;54.254;18.504;2023-03-21T08:34:46;0;0;0
51258;PMS7003;37327;54.254;18.504;2023-03-21T08:38:03;0;0;0
51258;PMS7003;37327;54.254;18.504;2023-03-21T08:41:22;0;0;0
51258;PMS7003;37327;54.254;18.504;2023-03-21T08:44:41;0;0;0
51258;PMS7003;37327;54.254;18.504;2023-03-21T08:47:58;0;0;0
51258;PMS7003;37327;54.254;18.504;2023-03-21T08:51:16;1;1;1
51258;PMS7003;37327;54.254;18.504;2023-03-21T08:54:33;1;0;0
51258;PMS7003;37327;54.254;18.504;2023-03-21T08:57:51;0;0;0
51258;PMS7003;37327;54.254;18.504;2023-03-21T09:01:08;0;0;0
51258;PMS7003;37327;54.254;18.504;2023-03-21T09:04:30;0;0;0
51258;PMS7003;37327;54.254;18.504;2023-03-21T09:07:47;1;1;1
51258;PMS7003;37327;54.254;18.504;2023-03-21T09:11:05;0;0;0
51258;PMS7003;37327;54.254;18.504;2023-03-21T09:14:22;0;0;0
51258;PMS7003;37327;54.254;18.504;2023-03-21T09:17:40;0;0;0
51258;PMS7003;37327;54.254;18.504;2023-03-21T09:21:06;0;0;0
51258;PMS7003;37327;54.254;18.504;2023-03-21T09:24:29;0;0;0
51258;PMS7003;37327;54.254;18.504;2023-03-21T09:27:47;0;0;0
51258;PMS7003;37327;54.254;18.504;2023-03-21T09:31:06;0;0;0
51258;PMS7003;37327;54.254;18.504;2023-03-21T09:34:27;0;0;0
51258;PMS7003;37327;54.254;18.504;2023-03-21T09:37:47;0;0;0
51258;PMS7003;37327;54.254;18.504;2023-03-21T09:41:09;2;0;0
51258;PMS7003;37327;54.254;18.504;2023-03-21T09:48:04;1;0;0
51258;PMS7003;37327;54.254;18.504;2023-03-21T09:51:33;0;0;0
51258;PMS7003;37327;54.254;18.504;2023-03-21T09:54:55;1;0;0
51258;PMS7003;37327;54.254;18.504;2023-03-21T10:01:43;1;0;0
51258;PMS7003;37327;54.254;18.504;2023-03-21T10:05:25;0;0;0
51258;PMS7003;37327;54.254;18.504;2023-03-21T10:08:34;0;0;0
51258;PMS7003;37327;54.254;18.504;2023-03-21T10:15:29;0;0;0
51258;PMS7003;37327;54.254;18.504;2023-03-21T10:18:46;0;0;0
51258;PMS7003;37327;54.254;18.504;2023-03-21T10:22:07;0;0;0
51258;PMS7003;37327;54.254;18.504;2023-03-21T10:25:27;0;0;0
51258;PMS7003;37327;54.254;18.504;2023-03-21T10:28:52;0;0;0
51258;PMS7003;37327;54.254;18.504;2023-03-21T10:32:12;0;0;0
51258;PMS7003;37327;54.254;18.504;2023-03-21T10:35:33;1;0;0
51258;PMS7003;37327;54.254;18.504;2023-03-21T10:38:52;0;0;0
51258;PMS7003;37327;54.254;18.504;2023-03-21T10:42:34;0;0;0
51258;PMS7003;37327;54.254;18.504;2023-03-21T10:45:46;1;0;0
51258;PMS7003;37327;54.254;18.504;2023-03-21T10:49:06;0;0;0
51258;PMS7003;37327;54.254;18.504;2023-03-21T10:52:25;0;0;0
51258;PMS7003;37327;54.254;18.504;2023-03-21T10:55:46;0;0;0
51258;PMS7003;37327;54.254;18.504;2023-03-21T10:59:04;2;0;0
51258;PMS7003;37327;54.254;18.504;2023-03-21T11:02:27;0;0;0
51258;PMS7003;37327;54.254;18.504;2023-03-21T11:05:52;0;0;0
51258;PMS7003;37327;54.254;18.504;2023-03-21T11:09:15;0;0;0
51258;PMS7003;37327;54.254;18.504;2023-03-21T11:12:38;0;0;0
51258;PMS7003;37327;54.254;18.504;2023-03-21T11:16:03;2;0;0
51258;PMS7003;37327;54.254;18.504;2023-03-21T11:19:32;0;0;0
51258;PMS7003;37327;54.254;18.504;2023-03-21T11:22:53;1;1;1
51258;PMS7003;37327;54.254;18.504;2023-03-21T11:26:21;0;0;0
51258;PMS7003;37327;54.254;18.504;2023-03-21T11:29:44;1;0;0
51258;PMS7003;37327;54.254;18.504;2023-03-21T11:33:04;0;0;0
51258;PMS7003;37327;54.254;18.504;2023-03-21T11:36:26;0;0;0
51258;PMS7003;37327;54.254;18.504;2023-03-21T11:39:54;0;0;0
51258;PMS7003;37327;54.254;18.504;2023-03-21T11:46:44;1;1;1
51258;PMS7003;37327;54.254;18.504;2023-03-21T11:50:04;1;1;0
51258;PMS7003;37327;54.254;18.504;2023-03-21T12:11:03;1;1;1
51258;PMS7003;37327;54.254;18.504;2023-03-21T12:14:29;0;0;0
51258;PMS7003;37327;54.254;18.504;2023-03-21T12:17:57;0;0;0
51258;PMS7003;37327;54.254;18.504;2023-03-21T12:21:25;2;1;1
51258;PMS7003;37327;54.254;18.504;2023-03-21T12:24:54;1;1;1
51258;PMS7003;37327;54.254;18.504;2023-03-21T12:28:21;0;0;0
51258;PMS7003;37327;54.254;18.504;2023-03-21T12:31:46;1;1;1
51258;PMS7003;37327;54.254;18.504;2023-03-21T12:45:43;1;1;1
51258;PMS7003;37327;54.254;18.504;2023-03-21T12:52:33;2;1;1
51258;PMS7003;37327;54.254;18.504;2023-03-21T12:55:57;2;1;1
51258;PMS7003;37327;54.254;18.504;2023-03-21T13:06:16;1;1;1
51258;PMS7003;37327;54.254;18.504;2023-03-21T13:09:40;0;0;0
51258;PMS7003;37327;54.254;18.504;2023-03-21T13:20:00;0;0;0
51258;PMS7003;37327;54.254;18.504;2023-03-21T13:23:32;0;0;0
51258;PMS7003;37327;54.254;18.504;2023-03-21T13:26:57;1;0;0
51258;PMS7003;37327;54.254;18.504;2023-03-21T13:30:20;0;0;0
51258;PMS7003;37327;54.254;18.504;2023-03-21T13:33:41;1;1;1
51258;PMS7003;37327;54.254;18.504;2023-03-21T13:37:03;0;0;0
51258;PMS7003;37327;54.254;18.504;2023-03-21T13:40:25;0;0;0
51258;PMS7003;37327;54.254;18.504;2023-03-21T13:50:49;0;0;0
51258;PMS7003;37327;54.254;18.504;2023-03-21T13:57:36;0;0;0
51258;PMS7003;37327;54.254;18.504;2023-03-21T14:04:27;1;1;1
51258;PMS7003;37327;54.254;18.504;2023-03-21T14:07:55;1;1;0
51258;PMS7003;37327;54.254;18.504;2023-03-21T14:11:17;1;1;1
51258;PMS7003;37327;54.254;18.504;2023-03-21T14:14:40;1;0;0
51258;PMS7003;37327;54.254;18.504;2023-03-21T14:18:01;3;1;1
51258;PMS7003;37327;54.254;18.504;2023-03-21T14:21:20;0;0;0
51258;PMS7003;37327;54.254;18.504;2023-03-21T14:26:47;0;0;0
51258;PMS7003;37327;54.254;18.504;2023-03-21T14:30:09;0;0;0
51258;PMS7003;37327;54.254;18.504;2023-03-21T14:33:38;0;0;0
51258;PMS7003;37327;54.254;18.504;2023-03-21T14:37:06;1;0;0
51258;PMS7003;37327;54.254;18.504;2023-03-21T14:40:27;0;0;0
51258;PMS7003;37327;54.254;18.504;2023-03-21T14:43:56;1;1;1
51258;PMS7003;37327;54.254;18.504;2023-03-21T14:50:39;1;1;0
51258;PMS7003;37327;54.254;18.504;2023-03-21T14:54:03;1;0;0
51258;PMS7003;37327;54.254;18.504;2023-03-21T15:00:49;0;0;0
51258;PMS7003;37327;54.254;18.504;2023-03-21T15:04:10;2;1;1
51258;PMS7003;37327;54.254;18.504;2023-03-21T15:07:32;4;3;2
51258;PMS7003;37327;54.254;18.504;2023-03-21T15:14:19;6;6;6
51258;PMS7003;37327;54.254;18.504;2023-03-21T15:17:41;6;4;3
51258;PMS7003;37327;54.254;18.504;2023-03-21T15:21:01;5;3;2
51258;PMS7003;37327;54.254;18.504;2023-03-21T15:24:26;6;4;4
51258;PMS7003;37327;54.254;18.504;2023-03-21T15:27:49;6;4;2
51258;PMS7003;37327;54.254;18.504;2023-03-21T15:31:15;5;4;4
51258;PMS7003;37327;54.254;18.504;2023-03-21T15:34:35;6;6;5
51258;PMS7003;37327;54.254;18.504;2023-03-21T15:37:56;3;3;2
51258;PMS7003;37327;54.254;18.504;2023-03-21T15:44:46;5;5;4
51258;PMS7003;37327;54.254;18.504;2023-03-21T15:48:08;4;2;2
51258;PMS7003;37327;54.254;18.504;2023-03-21T15:51:29;4;3;3
51258;PMS7003;37327;54.254;18.504;2023-03-21T15:54:49;5;4;4
51258;PMS7003;37327;54.254;18.504;2023-03-21T15:58:15;4;3;2
51258;PMS7003;37327;54.254;18.504;2023-03-21T16:01:43;4;4;3
51258;PMS7003;37327;54.254;18.504;2023-03-21T16:05:49;5;4;3
51258;PMS7003;37327;54.254;18.504;2023-03-21T16:08:33;5;4;4
51258;PMS7003;37327;54.254;18.504;2023-03-21T16:11:54;3;3;2
51258;PMS7003;37327;54.254;18.504;2023-03-21T16:15:14;6;5;4
51258;PMS7003;37327;54.254;18.504;2023-03-21T16:18:32;4;4;4
51258;PMS7003;37327;54.254;18.504;2023-03-21T16:21:50;3;3;3
51258;PMS7003;37327;54.254;18.504;2023-03-21T16:25:08;7;5;4
51258;PMS7003;37327;54.254;18.504;2023-03-21T16:28:26;5;4;3
51258;PMS7003;37327;54.254;18.504;2023-03-21T16:31:43;6;6;5
51258;PMS7003;37327;54.254;18.504;2023-03-21T16:35:04;5;5;4
51258;PMS7003;37327;54.254;18.504;2023-03-21T16:38:23;1;0;0
51258;PMS7003;37327;54.254;18.504;2023-03-21T16:41:41;5;5;5
51258;PMS7003;37327;54.254;18.504;2023-03-21T16:44:58;6;5;4
51258;PMS7003;37327;54.254;18.504;2023-03-21T16:48:15;6;4;3
51258;PMS7003;37327;54.254;18.504;2023-03-21T16:51:34;5;4;4
51258;PMS7003;37327;54.254;18.504;2023-03-21T16:54:52;5;5;4
51258;PMS7003;37327;54.254;18.504;2023-03-21T16:58:10;5;4;4
51258;PMS7003;37327;54.254;18.504;2023-03-21T17:01:29;4;4;3
51258;PMS7003;37327;54.254;18.504;2023-03-21T17:04:47;6;5;4
51258;PMS7003;37327;54.254;18.504;2023-03-21T17:08:05;2;2;2
51258;PMS7003;37327;54.254;18.504;2023-03-21T17:11:23;5;5;4
51258;PMS7003;37327;54.254;18.504;2023-03-21T17:14:50;4;4;3
51258;PMS7003;37327;54.254;18.504;2023-03-21T17:18:08;3;3;3
51258;PMS7003;37327;54.254;18.504;2023-03-21T17:21:28;6;4;4
51258;PMS7003;37327;54.254;18.504;2023-03-21T17:24:46;5;4;3
51258;PMS7003;37327;54.254;18.504;2023-03-21T17:28:03;5;4;4
51258;PMS7003;37327;54.254;18.504;2023-03-21T17:31:22;3;3;3
51258;PMS7003;37327;54.254;18.504;2023-03-21T17:34:40;4;4;3
51258;PMS7003;37327;54.254;18.504;2023-03-21T17:37:57;5;4;2
51258;PMS7003;37327;54.254;18.504;2023-03-21T17:41:16;4;4;3
51258;PMS7003;37327;54.254;18.504;2023-03-21T17:44:35;6;4;4
51258;PMS7003;37327;54.254;18.504;2023-03-21T17:47:52;7;6;5
51258;PMS7003;37327;54.254;18.504;2023-03-21T17:51:10;4;4;4
51258;PMS7003;37327;54.254;18.504;2023-03-21T17:54:31;6;6;5
51258;PMS7003;37327;54.254;18.504;2023-03-21T17:57:49;6;6;5
51258;PMS7003;37327;54.254;18.504;2023-03-21T18:01:06;5;3;2
51258;PMS7003;37327;54.254;18.504;2023-03-21T18:04:23;9;7;6
51258;PMS7003;37327;54.254;18.504;2023-03-21T18:07:42;11;9;8
51258;PMS7003;37327;54.254;18.504;2023-03-21T18:11:00;15;14;11
51258;PMS7003;37327;54.254;18.504;2023-03-21T18:14:18;15;12;9
51258;PMS7003;37327;54.254;18.504;2023-03-21T18:17:37;10;10;9
51258;PMS7003;37327;54.254;18.504;2023-03-21T18:20:54;13;9;8
51258;PMS7003;37327;54.254;18.504;2023-03-21T18:24:12;12;10;8
51258;PMS7003;37327;54.254;18.504;2023-03-21T18:27:30;10;9;8
51258;PMS7003;37327;54.254;18.504;2023-03-21T18:30:49;8;8;6
51258;PMS7003;37327;54.254;18.504;2023-03-21T18:34:07;8;7;6
51258;PMS7003;37327;54.254;18.504;2023-03-21T18:37:25;7;6;5
51258;PMS7003;37327;54.254;18.504;2023-03-21T18:40:46;8;8;6
51258;PMS7003;37327;54.254;18.504;2023-03-21T18:44:04;10;8;7
51258;PMS7003;37327;54.254;18.504;2023-03-21T18:47:21;10;9;7
51258;PMS7003;37327;54.254;18.504;2023-03-21T18:50:39;10;7;5
51258;PMS7003;37327;54.254;18.504;2023-03-21T18:53:57;10;8;7
51258;PMS7003;37327;54.254;18.504;2023-03-21T18:57:16;6;6;5
51258;PMS7003;37327;54.254;18.504;2023-03-21T19:00:35;36;30;21
51258;PMS7003;37327;54.254;18.504;2023-03-21T19:03:52;51;41;28
51258;PMS7003;37327;54.254;18.504;2023-03-21T19:07:15;59;47;29
51258;PMS7003;37327;54.254;18.504;2023-03-21T19:10:33;47;40;26
51258;PMS7003;37327;54.254;18.504;2023-03-21T19:13:53;13;12;7
51258;PMS7003;37327;54.254;18.504;2023-03-21T19:17:12;14;13;11
51258;PMS7003;37327;54.254;18.504;2023-03-21T19:20:30;16;15;12
51258;PMS7003;37327;54.254;18.504;2023-03-21T19:23:49;15;13;11
51258;PMS7003;37327;54.254;18.504;2023-03-21T19:27:09;13;12;10
51258;PMS7003;37327;54.254;18.504;2023-03-21T19:30:28;9;9;8
51258;PMS7003;37327;54.254;18.504;2023-03-21T19:33:46;11;10;9
51258;PMS7003;37327;54.254;18.504;2023-03-21T19:37:03;8;7;7
51258;PMS7003;37327;54.254;18.504;2023-03-21T19:40:21;10;9;8
51258;PMS7003;37327;54.254;18.504;2023-03-21T19:43:39;8;8;7
51258;PMS7003;37327;54.254;18.504;2023-03-21T19:46:56;9;9;7
51258;PMS7003;37327;54.254;18.504;2023-03-21T19:50:14;6;6;6
51258;PMS7003;37327;54.254;18.504;2023-03-21T19:53:32;8;7;6
51258;PMS7003;37327;54.254;18.504;2023-03-21T19:56:49;9;8;6
51258;PMS7003;37327;54.254;18.504;2023-03-21T20:00:07;8;8;5
51258;PMS7003;37327;54.254;18.504;2023-03-21T20:03:26;13;10;9
51258;PMS7003;37327;54.254;18.504;2023-03-21T20:06:43;14;12;10
51258;PMS7003;37327;54.254;18.504;2023-03-21T20:10:01;17;15;12
51258;PMS7003;37327;54.254;18.504;2023-03-21T20:13:19;12;12;10
51258;PMS7003;37327;54.254;18.504;2023-03-21T20:16:37;13;11;10
51258;PMS7003;37327;54.254;18.504;2023-03-21T20:19:54;11;9;9
51258;PMS7003;37327;54.254;18.504;2023-03-21T20:23:15;10;9;9
51258;PMS7003;37327;54.254;18.504;2023-03-21T20:26:34;10;9;8
51258;PMS7003;37327;54.254;18.504;2023-03-21T20:29:53;12;11;9
51258;PMS7003;37327;54.254;18.504;2023-03-21T20:33:10;11;11;11
51258;PMS7003;37327;54.254;18.504;2023-03-21T20:36:27;10;10;8
51258;PMS7003;37327;54.254;18.504;2023-03-21T20:39:45;10;8;8
51258;PMS7003;37327;54.254;18.504;2023-03-21T20:43:03;13;10;9
51258;PMS7003;37327;54.254;18.504;2023-03-21T20:46:21;15;12;9
51258;PMS7003;37327;54.254;18.504;2023-03-21T20:49:38;12;12;9
51258;PMS7003;37327;54.254;18.504;2023-03-21T20:52:56;12;10;9
51258;PMS7003;37327;54.254;18.504;2023-03-21T20:56:13;13;12;11
51258;PMS7003;37327;54.254;18.504;2023-03-21T20:59:31;15;14;11
51258;PMS7003;37327;54.254;18.504;2023-03-21T21:02:49;14;12;11
51258;PMS7003;37327;54.254;18.504;2023-03-21T21:06:16;12;10;10
51258;PMS7003;37327;54.254;18.504;2023-03-21T21:09:31;17;17;11
51258;PMS7003;37327;54.254;18.504;2023-03-21T21:12:49;16;15;13
51258;PMS7003;37327;54.254;18.504;2023-03-21T21:16:07;14;14;11
51258;PMS7003;37327;54.254;18.504;2023-03-21T21:19:26;21;17;13
51258;PMS7003;37327;54.254;18.504;2023-03-21T21:22:44;22;22;18
51258;PMS7003;37327;54.254;18.504;2023-03-21T21:26:04;17;16;12
51258;PMS7003;37327;54.254;18.504;2023-03-21T21:29:27;17;17;14
51258;PMS7003;37327;54.254;18.504;2023-03-21T21:32:44;20;19;16
51258;PMS7003;37327;54.254;18.504;2023-03-21T21:36:02;24;21;17
51258;PMS7003;37327;54.254;18.504;2023-03-21T21:39:21;24;20;15
51258;PMS7003;37327;54.254;18.504;2023-03-21T21:42:41;18;17;13
51258;PMS7003;37327;54.254;18.504;2023-03-21T21:45:59;22;19;15
51258;PMS7003;37327;54.254;18.504;2023-03-21T21:49:17;18;18;14
51258;PMS7003;37327;54.254;18.504;2023-03-21T21:52:34;19;17;13
51258;PMS7003;37327;54.254;18.504;2023-03-21T21:55:52;19;18;14
51258;PMS7003;37327;54.254;18.504;2023-03-21T21:59:11;24;21;16
51258;PMS7003;37327;54.254;18.504;2023-03-21T22:02:31;28;25;19
51258;PMS7003;37327;54.254;18.504;2023-03-21T22:05:49;12;9;4
51258;PMS7003;37327;54.254;18.504;2023-03-21T22:09:09;20;17;16
51258;PMS7003;37327;54.254;18.504;2023-03-21T22:12:27;25;20;16
51258;PMS7003;37327;54.254;18.504;2023-03-21T22:15:44;20;19;16
51258;PMS7003;37327;54.254;18.504;2023-03-21T22:19:02;24;22;18
51258;PMS7003;37327;54.254;18.504;2023-03-21T22:22:20;22;20;15
51258;PMS7003;37327;54.254;18.504;2023-03-21T22:25:37;21;21;16
51258;PMS7003;37327;54.254;18.504;2023-03-21T22:28:54;18;17;14
51258;PMS7003;37327;54.254;18.504;2023-03-21T22:32:12;24;21;16
51258;PMS7003;37327;54.254;18.504;2023-03-21T22:35:30;17;15;12
51258;PMS7003;37327;54.254;18.504;2023-03-21T22:38:47;22;20;14
51258;PMS7003;37327;54.254;18.504;2023-03-21T22:42:05;23;21;15
51258;PMS7003;37327;54.254;18.504;2023-03-21T22:45:22;20;18;14
51258;PMS7003;37327;54.254;18.504;2023-03-21T22:48:39;19;17;15
51258;PMS7003;37327;54.254;18.504;2023-03-21T22:51:57;16;16;13
51258;PMS7003;37327;54.254;18.504;2023-03-21T22:55:15;19;16;13
51258;PMS7003;37327;54.254;18.504;2023-03-21T22:58:32;16;16;13
51258;PMS7003;37327;54.254;18.504;2023-03-21T23:01:49;12;10;8
51258;PMS7003;37327;54.254;18.504;2023-03-21T23:05:07;17;13;11
51258;PMS7003;37327;54.254;18.504;2023-03-21T23:08:26;17;14;11
51258;PMS7003;37327;54.254;18.504;2023-03-21T23:11:43;15;14;11
51258;PMS7003;37327;54.254;18.504;2023-03-21T23:15:05;16;13;11
51258;PMS7003;37327;54.254;18.504;2023-03-21T23:18:23;13;9;8
51258;PMS7003;37327;54.254;18.504;2023-03-21T23:21:41;9;9;8
51258;PMS7003;37327;54.254;18.504;2023-03-21T23:24:59;11;10;9
51258;PMS7003;37327;54.254;18.504;2023-03-21T23:28:17;13;13;9
51258;PMS7003;37327;54.254;18.504;2023-03-21T23:31:34;11;10;9
51258;PMS7003;37327;54.254;18.504;2023-03-21T23:34:55;11;10;9
51258;PMS7003;37327;54.254;18.504;2023-03-21T23:38:12;9;8;6
51258;PMS7003;37327;54.254;18.504;2023-03-21T23:41:29;11;10;8
51258;PMS7003;37327;54.254;18.504;2023-03-21T23:44:46;11;10;8
51258;PMS7003;37327;54.254;18.504;2023-03-21T23:48:04;12;12;10
51258;PMS7003;37327;54.254;18.504;2023-03-21T23:51:22;11;10;9
51258;PMS7003;37327;54.254;18.504;2023-03-21T23:54:39;13;12;10